sensor_id;sensor_type;location;lat;lon;timestamp;temperature;humidity
6879;DHT22;3478;51.462;7.338;2023-08-31T00:04:51;13.10;99.90
6879;DHT22;3478;51.462;7.338;2023-08-31T00:09:54;13.10;99.90
6879;DHT22;3478;51.462;7.338;2023-08-31T00:14:57;13.20;99.90
6879;DHT22;3478;51.462;7.338;2023-08-31T00:19:59;13.20;99.90
6879;DHT22;3478;51.462;7.338;2023-08-31T00:25:01;13.20;99.90
6879;DHT22;3478;51.462;7.338;2023-08-31T00:30:05;13.10;99.90
6879;DHT22;3478;51.462;7.338;2023-08-31T00:35:09;13.10;99.90
6879;DHT22;3478;51.462;7.338;2023-08-31T00:40:11;13.00;99.90
6879;DHT22;3478;51.462;7.338;2023-08-31T00:45:16;13.10;99.90
6879;DHT22;3478;51.462;7.338;2023-08-31T00:50:18;13.10;99.90
6879;DHT22;3478;51.462;7.338;2023-08-31T00:55:20;13.10;99.90
6879;DHT22;3478;51.462;7.338;2023-08-31T01:00:27;13.10;99.90
6879;DHT22;3478;51.462;7.338;2023-08-31T01:05:44;13.10;99.90
6879;DHT22;3478;51.462;7.338;2023-08-31T01:10:57;13.00;99.90
6879;DHT22;3478;51.462;7.338;2023-08-31T01:16:05;12.90;99.90
6879;DHT22;3478;51.462;7.338;2023-08-31T01:21:12;12.80;99.90
6879;DHT22;3478;51.462;7.338;2023-08-31T01:26:21;12.90;99.90
6879;DHT22;3478;51.462;7.338;2023-08-31T01:31:23;12.70;99.90
6879;DHT22;3478;51.462;7.338;2023-08-31T01:36:27;12.60;99.90
6879;DHT22;3478;51.462;7.338;2023-08-31T01:41:33;12.50;99.90
6879;DHT22;3478;51.462;7.338;2023-08-31T01:46:36;12.50;99.90
6879;DHT22;3478;51.462;7.338;2023-08-31T01:51:38;12.50;99.90
6879;DHT22;3478;51.462;7.338;2023-08-31T01:56:41;12.40;99.90
6879;DHT22;3478;51.462;7.338;2023-08-31T02:01:43;12.40;99.90
6879;DHT22;3478;51.462;7.338;2023-08-31T02:06:44;12.40;99.90
6879;DHT22;3478;51.462;7.338;2023-08-31T02:11:47;12.40;99.90
6879;DHT22;3478;51.462;7.338;2023-08-31T02:16:49;12.50;99.90
6879;DHT22;3478;51.462;7.338;2023-08-31T02:21:51;12.50;99.90
6879;DHT22;3478;51.462;7.338;2023-08-31T02:26:55;12.40;99.90
6879;DHT22;3478;51.462;7.338;2023-08-31T02:31:57;12.30;99.90
6879;DHT22;3478;51.462;7.338;2023-08-31T02:36:59;12.30;99.90
6879;DHT22;3478;51.462;7.338;2023-08-31T02:42:02;12.20;99.90
6879;DHT22;3478;51.462;7.338;2023-08-31T02:47:05;12.10;99.90
6879;DHT22;3478;51.462;7.338;2023-08-31T02:52:07;12.10;99.90
6879;DHT22;3478;51.462;7.338;2023-08-31T02:57:10;12.10;99.90
6879;DHT22;3478;51.462;7.338;2023-08-31T03:02:12;12.10;99.90
6879;DHT22;3478;51.462;7.338;2023-08-31T03:07:15;12.00;99.90
6879;DHT22;3478;51.462;7.338;2023-08-31T03:12:18;12.00;99.90
6879;DHT22;3478;51.462;7.338;2023-08-31T03:17:20;11.90;99.90
6879;DHT22;3478;51.462;7.338;2023-08-31T03:22:22;11.90;99.90
6879;DHT22;3478;51.462;7.338;2023-08-31T03:27:26;11.90;99.90
6879;DHT22;3478;51.462;7.338;2023-08-31T03:32:27;11.90;99.90
6879;DHT22;3478;51.462;7.338;2023-08-31T03:37:29;11.90;99.90
6879;DHT22;3478;51.462;7.338;2023-08-31T03:42:32;12.00;99.90
6879;DHT22;3478;51.462;7.338;2023-08-31T03:47:34;12.00;99.90
6879;DHT22;3478;51.462;7.338;2023-08-31T03:52:36;12.10;99.90
6879;DHT22;3478;51.462;7.338;2023-08-31T03:57:39;12.00;99.90
6879;DHT22;3478;51.462;7.338;2023-08-31T04:02:42;12.10;99.90
6879;DHT22;3478;51.462;7.338;2023-08-31T04:07:44;12.20;99.90
6879;DHT22;3478;51.462;7.338;2023-08-31T04:12:48;12.20;99.90
6879;DHT22;3478;51.462;7.338;2023-08-31T04:17:49;12.30;99.90
6879;DHT22;3478;51.462;7.338;2023-08-31T04:22:51;12.20;99.90
6879;DHT22;3478;51.462;7.338;2023-08-31T04:27:54;12.20;99.90
6879;DHT22;3478;51.462;7.338;2023-08-31T04:32:57;12.10;99.90
6879;DHT22;3478;51.462;7.338;2023-08-31T04:37:59;12.00;99.90
6879;DHT22;3478;51.462;7.338;2023-08-31T04:43:03;12.10;99.90
6879;DHT22;3478;51.462;7.338;2023-08-31T04:48:05;12.10;99.90
6879;DHT22;3478;51.462;7.338;2023-08-31T04:53:07;12.00;99.90
6879;DHT22;3478;51.462;7.338;2023-08-31T04:58:10;11.90;99.90
6879;DHT22;3478;51.462;7.338;2023-08-31T05:03:12;11.90;99.90
6879;DHT22;3478;51.462;7.338;2023-08-31T05:08:14;11.90;99.90
6879;DHT22;3478;51.462;7.338;2023-08-31T05:13:17;11.90;99.90
6879;DHT22;3478;51.462;7.338;2023-08-31T05:18:19;11.90;99.90
6879;DHT22;3478;51.462;7.338;2023-08-31T05:23:20;11.90;99.90
6879;DHT22;3478;51.462;7.338;2023-08-31T05:28:24;12.00;99.90
6879;DHT22;3478;51.462;7.338;2023-08-31T05:33:25;12.00;99.90
6879;DHT22;3478;51.462;7.338;2023-08-31T05:38:29;12.00;99.90
6879;DHT22;3478;51.462;7.338;2023-08-31T05:43:32;12.10;99.90
6879;DHT22;3478;51.462;7.338;2023-08-31T05:48:34;12.10;99.90
6879;DHT22;3478;51.462;7.338;2023-08-31T05:53:36;12.20;99.90
6879;DHT22;3478;51.462;7.338;2023-08-31T05:58:40;12.20;99.90
6879;DHT22;3478;51.462;7.338;2023-08-31T06:03:42;12.40;99.90
6879;DHT22;3478;51.462;7.338;2023-08-31T06:08:43;12.40;99.90
6879;DHT22;3478;51.462;7.338;2023-08-31T06:13:46;12.50;99.90
6879;DHT22;3478;51.462;7.338;2023-08-31T06:18:48;12.60;99.90
6879;DHT22;3478;51.462;7.338;2023-08-31T06:23:50;12.80;99.90
6879;DHT22;3478;51.462;7.338;2023-08-31T06:28:53;12.90;99.90
6879;DHT22;3478;51.462;7.338;2023-08-31T06:33:55;13.10;99.90
6879;DHT22;3478;51.462;7.338;2023-08-31T06:38:57;13.00;99.90
6879;DHT22;3478;51.462;7.338;2023-08-31T06:44:01;13.10;99.90
6879;DHT22;3478;51.462;7.338;2023-08-31T06:49:03;13.10;99.90
6879;DHT22;3478;51.462;7.338;2023-08-31T06:54:05;13.30;99.90
6879;DHT22;3478;51.462;7.338;2023-08-31T06:59:08;13.40;99.90
6879;DHT22;3478;51.462;7.338;2023-08-31T07:04:10;13.50;99.90
6879;DHT22;3478;51.462;7.338;2023-08-31T07:09:12;13.60;99.90
6879;DHT22;3478;51.462;7.338;2023-08-31T07:14:16;13.80;99.90
6879;DHT22;3478;51.462;7.338;2023-08-31T07:19:18;13.80;99.90
6879;DHT22;3478;51.462;7.338;2023-08-31T07:24:20;13.90;99.90
6879;DHT22;3478;51.462;7.338;2023-08-31T07:29:24;13.90;99.90
6879;DHT22;3478;51.462;7.338;2023-08-31T07:34:26;14.10;99.90
6879;DHT22;3478;51.462;7.338;2023-08-31T07:39:28;14.20;99.90
6879;DHT22;3478;51.462;7.338;2023-08-31T07:44:32;14.30;99.90
6879;DHT22;3478;51.462;7.338;2023-08-31T07:49:33;14.50;99.90
6879;DHT22;3478;51.462;7.338;2023-08-31T07:54:35;14.60;99.90
6879;DHT22;3478;51.462;7.338;2023-08-31T07:59:38;14.60;99.90
6879;DHT22;3478;51.462;7.338;2023-08-31T08:04:41;14.70;99.90
6879;DHT22;3478;51.462;7.338;2023-08-31T08:09:44;14.70;99.90
6879;DHT22;3478;51.462;7.338;2023-08-31T08:14:47;14.80;99.90
6879;DHT22;3478;51.462;7.338;2023-08-31T08:19:49;14.80;99.90
6879;DHT22;3478;51.462;7.338;2023-08-31T08:24:51;14.90;99.90
6879;DHT22;3478;51.462;7.338;2023-08-31T08:29:54;15.00;99.90
6879;DHT22;3478;51.462;7.338;2023-08-31T08:34:56;15.10;99.90
6879;DHT22;3478;51.462;7.338;2023-08-31T08:39:58;15.20;99.90
6879;DHT22;3478;51.462;7.338;2023-08-31T08:45:02;15.40;99.90
6879;DHT22;3478;51.462;7.338;2023-08-31T08:50:05;15.40;99.90
6879;DHT22;3478;51.462;7.338;2023-08-31T08:55:09;15.60;99.90
6879;DHT22;3478;51.462;7.338;2023-08-31T09:00:13;15.70;99.90
6879;DHT22;3478;51.462;7.338;2023-08-31T09:05:15;16.00;99.90
6879;DHT22;3478;51.462;7.338;2023-08-31T09:10:17;16.20;99.90
6879;DHT22;3478;51.462;7.338;2023-08-31T09:15:21;16.40;99.90
6879;DHT22;3478;51.462;7.338;2023-08-31T09:20:22;16.60;99.90
6879;DHT22;3478;51.462;7.338;2023-08-31T09:25:24;16.50;99.90
6879;DHT22;3478;51.462;7.338;2023-08-31T09:30:34;16.50;99.90
6879;DHT22;3478;51.462;7.338;2023-08-31T09:35:40;16.70;99.90
6879;DHT22;3478;51.462;7.338;2023-08-31T09:40:42;17.10;99.90
6879;DHT22;3478;51.462;7.338;2023-08-31T09:45:45;17.10;99.90
6879;DHT22;3478;51.462;7.338;2023-08-31T09:50:48;17.40;99.90
6879;DHT22;3478;51.462;7.338;2023-08-31T09:55:52;17.30;99.90
6879;DHT22;3478;51.462;7.338;2023-08-31T10:00:57;17.00;99.90
6879;DHT22;3478;51.462;7.338;2023-08-31T10:06:00;17.10;99.90
6879;DHT22;3478;51.462;7.338;2023-08-31T10:11:04;17.20;99.90
6879;DHT22;3478;51.462;7.338;2023-08-31T10:16:08;17.80;99.90
6879;DHT22;3478;51.462;7.338;2023-08-31T10:21:10;18.10;99.90
6879;DHT22;3478;51.462;7.338;2023-08-31T10:26:12;18.60;99.90
6879;DHT22;3478;51.462;7.338;2023-08-31T10:31:28;18.70;99.90
6879;DHT22;3478;51.462;7.338;2023-08-31T10:36:38;19.10;99.90
6879;DHT22;3478;51.462;7.338;2023-08-31T10:41:40;19.30;99.90
6879;DHT22;3478;51.462;7.338;2023-08-31T10:46:43;19.40;99.90
6879;DHT22;3478;51.462;7.338;2023-08-31T10:51:48;19.40;99.90
6879;DHT22;3478;51.462;7.338;2023-08-31T10:57:03;20.10;99.90
6879;DHT22;3478;51.462;7.338;2023-08-31T11:02:07;20.50;99.90
6879;DHT22;3478;51.462;7.338;2023-08-31T11:07:13;21.00;99.90
6879;DHT22;3478;51.462;7.338;2023-08-31T11:12:17;20.90;99.90
6879;DHT22;3478;51.462;7.338;2023-08-31T11:17:20;21.10;99.90
6879;DHT22;3478;51.462;7.338;2023-08-31T11:22:22;21.90;99.10
6879;DHT22;3478;51.462;7.338;2023-08-31T11:27:24;21.40;98.50
6879;DHT22;3478;51.462;7.338;2023-08-31T11:32:28;21.90;99.90
6879;DHT22;3478;51.462;7.338;2023-08-31T11:37:29;23.20;97.60
6879;DHT22;3478;51.462;7.338;2023-08-31T11:42:31;23.10;96.50
6879;DHT22;3478;51.462;7.338;2023-08-31T11:47:35;22.80;93.00
6879;DHT22;3478;51.462;7.338;2023-08-31T11:52:37;22.30;95.50
6879;DHT22;3478;51.462;7.338;2023-08-31T11:57:40;21.70;98.50
6879;DHT22;3478;51.462;7.338;2023-08-31T12:02:43;20.80;98.40
6879;DHT22;3478;51.462;7.338;2023-08-31T12:07:47;20.30;99.90
6879;DHT22;3478;51.462;7.338;2023-08-31T12:12:48;20.00;99.90
6879;DHT22;3478;51.462;7.338;2023-08-31T12:17:54;19.90;99.90
6879;DHT22;3478;51.462;7.338;2023-08-31T12:22:56;21.60;98.60
6879;DHT22;3478;51.462;7.338;2023-08-31T12:27:58;23.40;91.20
6879;DHT22;3478;51.462;7.338;2023-08-31T12:33:01;24.50;88.20
6879;DHT22;3478;51.462;7.338;2023-08-31T12:38:04;23.10;90.00
6879;DHT22;3478;51.462;7.338;2023-08-31T12:43:06;21.10;95.60
6879;DHT22;3478;51.462;7.338;2023-08-31T12:48:09;20.60;99.20
6879;DHT22;3478;51.462;7.338;2023-08-31T12:53:11;22.00;97.10
6879;DHT22;3478;51.462;7.338;2023-08-31T12:58:13;22.90;94.70
6879;DHT22;3478;51.462;7.338;2023-08-31T13:03:16;22.90;93.40
6879;DHT22;3478;51.462;7.338;2023-08-31T13:08:18;22.50;92.90
6879;DHT22;3478;51.462;7.338;2023-08-31T13:13:19;23.70;90.70
6879;DHT22;3478;51.462;7.338;2023-08-31T13:18:23;24.60;91.10
6879;DHT22;3478;51.462;7.338;2023-08-31T13:23:25;25.80;88.30
6879;DHT22;3478;51.462;7.338;2023-08-31T13:28:26;26.20;81.40
6879;DHT22;3478;51.462;7.338;2023-08-31T13:33:30;25.30;80.40
6879;DHT22;3478;51.462;7.338;2023-08-31T13:38:32;25.30;82.10
6879;DHT22;3478;51.462;7.338;2023-08-31T13:43:34;25.70;79.80
6879;DHT22;3478;51.462;7.338;2023-08-31T13:48:37;25.20;80.60
6879;DHT22;3478;51.462;7.338;2023-08-31T13:53:39;25.30;83.00
6879;DHT22;3478;51.462;7.338;2023-08-31T13:58:41;26.20;80.50
6879;DHT22;3478;51.462;7.338;2023-08-31T14:03:44;25.10;78.30
6879;DHT22;3478;51.462;7.338;2023-08-31T14:08:46;24.70;83.20
6879;DHT22;3478;51.462;7.338;2023-08-31T14:13:47;24.10;80.60
6879;DHT22;3478;51.462;7.338;2023-08-31T14:18:51;24.30;79.50
6879;DHT22;3478;51.462;7.338;2023-08-31T14:23:53;25.10;78.00
6879;DHT22;3478;51.462;7.338;2023-08-31T14:28:56;25.60;76.50
6879;DHT22;3478;51.462;7.338;2023-08-31T14:33:59;24.10;78.30
6879;DHT22;3478;51.462;7.338;2023-08-31T14:39:01;22.40;85.00
6879;DHT22;3478;51.462;7.338;2023-08-31T14:44:04;21.30;88.80
6879;DHT22;3478;51.462;7.338;2023-08-31T14:49:07;20.90;91.30
6879;DHT22;3478;51.462;7.338;2023-08-31T14:54:09;20.40;95.10
6879;DHT22;3478;51.462;7.338;2023-08-31T14:59:11;19.20;99.90
6879;DHT22;3478;51.462;7.338;2023-08-31T15:04:15;18.20;99.90
6879;DHT22;3478;51.462;7.338;2023-08-31T15:09:17;17.20;99.90
6879;DHT22;3478;51.462;7.338;2023-08-31T15:19:23;17.10;99.90
6879;DHT22;3478;51.462;7.338;2023-08-31T15:24:25;17.10;99.90
6879;DHT22;3478;51.462;7.338;2023-08-31T15:29:27;17.00;99.90
6879;DHT22;3478;51.462;7.338;2023-08-31T15:34:32;16.90;99.90
6879;DHT22;3478;51.462;7.338;2023-08-31T15:39:34;16.80;99.90
6879;DHT22;3478;51.462;7.338;2023-08-31T15:44:40;16.90;99.90
6879;DHT22;3478;51.462;7.338;2023-08-31T15:49:45;16.90;99.90
6879;DHT22;3478;51.462;7.338;2023-08-31T15:54:47;16.70;99.90
6879;DHT22;3478;51.462;7.338;2023-08-31T15:59:49;16.60;99.90
6879;DHT22;3478;51.462;7.338;2023-08-31T16:04:53;16.60;99.90
6879;DHT22;3478;51.462;7.338;2023-08-31T16:09:55;16.50;99.90
6879;DHT22;3478;51.462;7.338;2023-08-31T16:14:57;16.50;99.90
6879;DHT22;3478;51.462;7.338;2023-08-31T16:20:01;16.60;99.90
6879;DHT22;3478;51.462;7.338;2023-08-31T16:25:04;16.60;99.90
6879;DHT22;3478;51.462;7.338;2023-08-31T16:30:07;16.50;99.90
6879;DHT22;3478;51.462;7.338;2023-08-31T16:35:14;16.60;99.90
6879;DHT22;3478;51.462;7.338;2023-08-31T16:40:17;16.60;99.90
6879;DHT22;3478;51.462;7.338;2023-08-31T16:45:20;16.70;99.90
6879;DHT22;3478;51.462;7.338;2023-08-31T16:50:31;16.60;99.90
6879;DHT22;3478;51.462;7.338;2023-08-31T16:55:36;16.50;99.90
6879;DHT22;3478;51.462;7.338;2023-08-31T17:00:38;16.50;99.90
6879;DHT22;3478;51.462;7.338;2023-08-31T17:05:42;16.50;99.90
6879;DHT22;3478;51.462;7.338;2023-08-31T17:10:44;16.40;99.90
6879;DHT22;3478;51.462;7.338;2023-08-31T17:15:46;16.30;99.90
6879;DHT22;3478;51.462;7.338;2023-08-31T17:20:50;16.30;99.90
6879;DHT22;3478;51.462;7.338;2023-08-31T17:25:52;16.30;99.90
6879;DHT22;3478;51.462;7.338;2023-08-31T17:30:54;16.30;99.90
6879;DHT22;3478;51.462;7.338;2023-08-31T17:35:58;16.30;99.90
6879;DHT22;3478;51.462;7.338;2023-08-31T17:41:00;16.30;99.90
6879;DHT22;3478;51.462;7.338;2023-08-31T17:46:02;16.30;99.90
6879;DHT22;3478;51.462;7.338;2023-08-31T17:51:07;16.20;99.90
6879;DHT22;3478;51.462;7.338;2023-08-31T17:56:09;16.20;99.90
6879;DHT22;3478;51.462;7.338;2023-08-31T18:01:11;16.10;99.90
6879;DHT22;3478;51.462;7.338;2023-08-31T18:06:15;16.00;99.90
6879;DHT22;3478;51.462;7.338;2023-08-31T18:11:17;16.00;99.90
6879;DHT22;3478;51.462;7.338;2023-08-31T18:16:19;16.00;99.90
6879;DHT22;3478;51.462;7.338;2023-08-31T18:21:23;16.00;99.90
6879;DHT22;3478;51.462;7.338;2023-08-31T18:26:25;15.90;99.90
6879;DHT22;3478;51.462;7.338;2023-08-31T18:31:28;15.80;99.90
6879;DHT22;3478;51.462;7.338;2023-08-31T18:36:31;15.80;99.90
6879;DHT22;3478;51.462;7.338;2023-08-31T18:41:36;15.70;99.90
6879;DHT22;3478;51.462;7.338;2023-08-31T18:46:39;15.60;99.90
6879;DHT22;3478;51.462;7.338;2023-08-31T18:51:45;15.60;99.90
6879;DHT22;3478;51.462;7.338;2023-08-31T18:56:48;15.60;99.90
6879;DHT22;3478;51.462;7.338;2023-08-31T19:01:50;15.50;99.90
6879;DHT22;3478;51.462;7.338;2023-08-31T19:06:56;15.40;99.90
6879;DHT22;3478;51.462;7.338;2023-08-31T19:12:01;15.30;99.90
6879;DHT22;3478;51.462;7.338;2023-08-31T19:17:04;15.30;99.90
6879;DHT22;3478;51.462;7.338;2023-08-31T19:22:07;15.30;99.90
6879;DHT22;3478;51.462;7.338;2023-08-31T19:27:24;15.30;99.90
6879;DHT22;3478;51.462;7.338;2023-08-31T19:32:26;15.30;99.90
6879;DHT22;3478;51.462;7.338;2023-08-31T19:37:31;15.20;99.90
6879;DHT22;3478;51.462;7.338;2023-08-31T19:42:34;15.20;99.90
6879;DHT22;3478;51.462;7.338;2023-08-31T19:47:36;15.10;99.90
6879;DHT22;3478;51.462;7.338;2023-08-31T19:52:46;15.00;99.90
6879;DHT22;3478;51.462;7.338;2023-08-31T19:57:53;14.90;99.90
6879;DHT22;3478;51.462;7.338;2023-08-31T20:02:58;14.90;99.90
6879;DHT22;3478;51.462;7.338;2023-08-31T20:08:02;14.90;99.90
6879;DHT22;3478;51.462;7.338;2023-08-31T20:13:07;14.90;99.90
6879;DHT22;3478;51.462;7.338;2023-08-31T20:18:09;14.80;99.90
6879;DHT22;3478;51.462;7.338;2023-08-31T20:23:13;14.70;99.90
6879;DHT22;3478;51.462;7.338;2023-08-31T20:28:15;14.70;99.90
6879;DHT22;3478;51.462;7.338;2023-08-31T20:33:18;14.70;99.90
6879;DHT22;3478;51.462;7.338;2023-08-31T20:38:22;14.60;99.90
6879;DHT22;3478;51.462;7.338;2023-08-31T20:43:24;14.70;99.90
6879;DHT22;3478;51.462;7.338;2023-08-31T20:48:27;14.60;99.90
6879;DHT22;3478;51.462;7.338;2023-08-31T20:53:30;14.60;99.90
6879;DHT22;3478;51.462;7.338;2023-08-31T20:58:33;14.50;99.90
6879;DHT22;3478;51.462;7.338;2023-08-31T21:03:38;14.50;99.90
6879;DHT22;3478;51.462;7.338;2023-08-31T21:08:41;14.40;99.90
6879;DHT22;3478;51.462;7.338;2023-08-31T21:13:44;14.40;99.90
6879;DHT22;3478;51.462;7.338;2023-08-31T21:18:46;14.40;99.90
6879;DHT22;3478;51.462;7.338;2023-08-31T21:23:50;14.30;99.90
6879;DHT22;3478;51.462;7.338;2023-08-31T21:28:52;14.30;99.90
6879;DHT22;3478;51.462;7.338;2023-08-31T21:33:54;14.20;99.90
6879;DHT22;3478;51.462;7.338;2023-08-31T21:38:58;14.20;99.90
6879;DHT22;3478;51.462;7.338;2023-08-31T21:44:00;14.20;99.90
6879;DHT22;3478;51.462;7.338;2023-08-31T21:49:04;14.10;99.90
6879;DHT22;3478;51.462;7.338;2023-08-31T21:54:07;14.20;99.90
6879;DHT22;3478;51.462;7.338;2023-08-31T21:59:10;14.10;99.90
6879;DHT22;3478;51.462;7.338;2023-08-31T22:04:12;14.10;99.90
6879;DHT22;3478;51.462;7.338;2023-08-31T22:09:16;14.20;99.90
6879;DHT22;3478;51.462;7.338;2023-08-31T22:14:21;14.10;99.90
6879;DHT22;3478;51.462;7.338;2023-08-31T22:19:24;14.10;99.90
6879;DHT22;3478;51.462;7.338;2023-08-31T22:24:29;14.10;99.90
6879;DHT22;3478;51.462;7.338;2023-08-31T22:29:31;14.10;99.90
6879;DHT22;3478;51.462;7.338;2023-08-31T22:34:33;14.10;99.90
6879;DHT22;3478;51.462;7.338;2023-08-31T22:39:36;14.10;99.90
6879;DHT22;3478;51.462;7.338;2023-08-31T22:44:38;14.10;99.90
6879;DHT22;3478;51.462;7.338;2023-08-31T22:49:41;14.00;99.90
6879;DHT22;3478;51.462;7.338;2023-08-31T22:54:44;14.00;99.90
6879;DHT22;3478;51.462;7.338;2023-08-31T22:59:46;13.90;99.90
6879;DHT22;3478;51.462;7.338;2023-08-31T23:04:48;13.80;99.90
6879;DHT22;3478;51.462;7.338;2023-08-31T23:09:51;13.80;99.90
6879;DHT22;3478;51.462;7.338;2023-08-31T23:14:54;13.80;99.90
6879;DHT22;3478;51.462;7.338;2023-08-31T23:19:56;13.70;99.90
6879;DHT22;3478;51.462;7.338;2023-08-31T23:24:59;13.70;99.90
6879;DHT22;3478;51.462;7.338;2023-08-31T23:30:01;13.70;99.90
6879;DHT22;3478;51.462;7.338;2023-08-31T23:35:04;13.70;99.90
6879;DHT22;3478;51.462;7.338;2023-08-31T23:40:09;13.70;99.90
6879;DHT22;3478;51.462;7.338;2023-08-31T23:45:11;13.60;99.90
6879;DHT22;3478;51.462;7.338;2023-08-31T23:50:13;13.50;99.90
6879;DHT22;3478;51.462;7.338;2023-08-31T23:55:17;13.50;99.90
